MKJP Airport Information

Runway Information
Runway 12 Length 8900 ft width 150 ft
Elevation 8 ft Threshold 0 ft Heading 112
Runway 30 Length 8900 ft Width 150 ft
Elevation 17 ft Threshold 0 ft Heading 292
Airport Frequencies
Type APP Name MANLEY APP Frequency 120.6 MHZ
Type ATIS Name ATIS Frequency 127.7 MHZ
Type GND Name GND Frequency 121.7 MHZ
Type TWR Name MANLEY TWR Frequency 118.65 MHZ
Airport Navaids
Type NDB Name Kingston Frequency 360 KHZ
Type VOR-DME Name Manley Frequency 115500 KHZ
Airport Weather Information & NOTAM
ADDS - METARS form results

(1729 UTC 24 May 2018)
 
METAR text: MKJP 241700Z 14021KT 9999 FEW022 31/26 Q1014
Conditions at: MKJP (KINGSTON/NORMAN , JM) observed 1700 UTC 24 May 2018
Temperature: 31.0°C (88°F)
Dewpoint: 26.0°C (79°F) [RH = 75%]
Pressure (altimeter): 29.94 inches Hg (1014.0 mb)
Winds: from the SE (140 degrees) at 24 MPH (21 knots; 10.9 m/s)
Visibility: 6 or more miles (10+ km)
Ceiling: at least 12,000 feet AGL
Clouds: few clouds at 2200 feet AGL
Weather: no significant weather observed at this time